Glory Trader — HPKO — position and weather

sailwx.info

Track history (hours):
 
Tides and Currents Weather Stations Pressure Air Temp Water Temp Dewpoint Dewpoint Depression Visibility Wind Speed Wind Dir Waves Ship Positions

Glory Trader

Last reported at 2017-Oct-17 22:45 UTC. Time now 2017-Nov-21 14:00 UTC.
Position N 17°36' W 060°48'.
Warning: this ship's position is 34 days out of date.

Length 225 m; draft 13.4 m.

Type: Cargo ship. MMSI: 353577000.

Date/timePositionNaut miles runAvg speedWind from/ knotsBaromVisibWave heightAir tempDewpointWater temp
2017-Oct-17 22:45N 17°36' W 060°48'311.3
2017-Oct-17 22:30N 17°37' W 060°50'611.3
2017-Oct-17 22:00N 17°41' W 060°55'611.1
2017-Oct-17 21:30N 17°44' W 060°60'611.0
2017-Oct-17 21:00N 17°47' W 061°05'510.9
2017-Oct-17 20:30N 17°51' W 061°09'510.8
2017-Oct-17 20:00N 17°54' W 061°14'510.9
2017-Oct-17 19:30N 17°56' W 061°19'510.3
2017-Oct-17 19:00N 17°60' W 061°23'6110.4
2017-Oct-17 13:05N 18°30' W 062°19'  
Track history (hours):
 
Tides and Currents Weather Stations Pressure Air Temp Water Temp Dewpoint Dewpoint Depression Visibility Wind Speed Wind Dir Waves Ship Positions

Glory Trader

Last reported at 2017-Oct-17 22:45 UTC. Time now 2017-Nov-21 14:00 UTC.
Position N 17°36' W 060°48'.
Warning: this ship's position is 34 days out of date.

Length 225 m; draft 13.4 m.

Type: Cargo ship. MMSI: 353577000.

Date/timePositionNaut miles runAvg speedWind from/ knotsBaromVisibWave heightAir tempDewpointWater temp
2017-Oct-17 22:45N 17°36' W 060°48'311.3
2017-Oct-17 22:30N 17°37' W 060°50'611.3
2017-Oct-17 22:00N 17°41' W 060°55'611.1
2017-Oct-17 21:30N 17°44' W 060°60'611.0
2017-Oct-17 21:00N 17°47' W 061°05'510.9
2017-Oct-17 20:30N 17°51' W 061°09'510.8
2017-Oct-17 20:00N 17°54' W 061°14'510.9
2017-Oct-17 19:30N 17°56' W 061°19'510.3
2017-Oct-17 19:00N 17°60' W 061°23'6110.4
2017-Oct-17 13:05N 18°30' W 062°19'  

Dump ship's entire track history